Time;durP1;ratioP1;P1;durP2;ratioP2;P2;SDS_P1;SDS_P2;PMS_P1;PMS_P2;Temp;Humidity;BMP_temperature;BMP_pressure;BME280_temperature;BME280_humidity;BME280_pressure;Samples;Min_cycle;Max_cycle;Signal;HPM_P1;HPM_P2
2022/07/29 00:02:01;;;;;;;3.15;1.58;;;;;;;20.53;45.01;101558.22;6274402;22;20008;-72
2022/07/29 00:04:26;;;;;;;4.60;1.50;;;;;;;20.55;44.85;101568.06;6274078;22;20358;-72
2022/07/29 00:06:51;;;;;;;3.83;1.55;;;;;;;20.53;44.89;101567.50;6274055;22;20035;-72
2022/07/29 00:09:16;;;;;;;5.75;1.42;;;;;;;20.50;44.89;101572.91;6275415;22;20004;-72
2022/07/29 00:11:42;;;;;;;8.30;1.85;;;;;;;20.50;45.01;101572.91;6275853;22;20042;-72
2022/07/29 00:14:08;;;;;;;4.22;1.33;;;;;;;20.49;44.85;101574.91;6273881;22;20011;-72
2022/07/29 00:16:33;;;;;;;4.82;1.45;;;;;;;20.44;45.27;101560.00;6273763;22;20004;-72
2022/07/29 00:18:58;;;;;;;2.67;1.38;;;;;;;20.50;45.15;101561.63;6275042;22;20008;-72
2022/07/29 00:21:24;;;;;;;2.55;1.50;;;;;;;20.43;45.31;101564.78;6271154;22;20093;-72
2022/07/29 00:23:49;;;;;;;3.47;1.60;;;;;;;20.32;45.65;101558.47;6273198;22;19999;-72
2022/07/29 00:26:14;;;;;;;4.15;1.80;;;;;;;20.38;45.52;101561.22;6273685;22;20035;-72
2022/07/29 00:28:40;;;;;;;5.30;1.80;;;;;;;20.33;45.62;101571.41;6273827;22;20065;-72
2022/07/29 00:31:05;;;;;;;6.07;1.70;;;;;;;20.31;45.70;101567.22;6274864;22;20004;-72
2022/07/29 00:33:30;;;;;;;5.20;2.13;;;;;;;20.32;45.67;101560.44;6275211;22;20038;-72
2022/07/29 00:36:01;;;;;;;6.38;1.70;;;;;;;20.32;45.92;101575.38;6273644;22;20404;-73
2022/07/29 00:38:27;;;;;;;7.63;1.67;;;;;;;20.35;45.61;101574.75;6274780;22;20069;-72
2022/07/29 00:40:52;;;;;;;3.90;1.70;;;;;;;20.33;46.05;101579.88;6275406;22;20420;-72
2022/07/29 00:43:17;;;;;;;3.17;1.50;;;;;;;20.31;46.21;101584.13;6274482;22;20061;-72
2022/07/29 00:45:43;;;;;;;4.32;1.73;;;;;;;20.27;46.08;101589.53;6275287;22;20035;-72
2022/07/29 00:48:09;;;;;;;2.25;1.60;;;;;;;20.19;46.42;101600.63;6275373;22;20323;-72
2022/07/29 00:50:35;;;;;;;4.82;1.58;;;;;;;20.22;46.23;101598.03;6273499;22;20008;-72
2022/07/29 00:53:02;;;;;;;4.15;1.52;;;;;;;20.22;46.50;101612.16;6273295;22;20010;-72
2022/07/29 00:55:27;;;;;;;3.72;1.75;;;;;;;20.14;46.73;101615.63;6274405;22;20083;-72
2022/07/29 00:57:53;;;;;;;2.72;1.40;;;;;;;20.23;46.42;101604.53;6273569;22;20036;-72
2022/07/29 01:00:24;;;;;;;3.65;1.60;;;;;;;20.23;46.22;101581.97;6274866;22;20000;-72
2022/07/29 01:02:50;;;;;;;4.03;1.60;;;;;;;20.26;46.13;101578.56;6273806;22;20008;-72
2022/07/29 01:05:21;;;;;;;5.10;2.08;;;;;;;20.26;46.29;101573.75;6275305;22;20759;-72
2022/07/29 01:07:48;;;;;;;2.88;1.70;;;;;;;20.27;46.23;101572.59;6274589;22;20034;-72
2022/07/29 01:10:15;;;;;;;6.75;1.73;;;;;;;20.24;46.48;101544.19;6274231;22;20142;-72
2022/07/29 01:12:43;;;;;;;6.15;1.80;;;;;;;20.29;46.48;101538.50;6274820;22;20003;-72
2022/07/29 01:15:09;;;;;;;4.10;1.67;;;;;;;20.26;46.86;101533.44;6275329;22;20088;-73
2022/07/29 01:17:49;;;;;;;2.58;1.60;;;;;;;20.20;47.21;101538.34;6275120;22;20027;-73
2022/07/29 01:20:51;;;;;;;2.58;1.58;;;;;;;20.19;47.60;101525.34;6273736;22;20092;-73
2022/07/29 01:23:27;;;;;;;6.45;1.80;;;;;;;20.23;47.28;101532.06;6274166;22;20003;-73
2022/07/29 01:26:22;;;;;;;4.07;1.88;;;;;;;20.22;47.67;101519.13;6274055;22;20011;-73
2022/07/29 01:29:06;;;;;;;5.53;1.92;;;;;;;20.19;47.58;101502.81;6274926;22;20012;-73
2022/07/29 01:31:42;;;;;;;3.47;1.80;;;;;;;20.12;47.95;101491.06;6273461;22;20014;-73
2022/07/29 01:34:12;;;;;;;3.90;2.08;;;;;;;20.01;48.54;101481.91;6274016;22;20473;-73
2022/07/29 01:36:48;;;;;;;6.15;2.28;;;;;;;20.00;48.42;101482.19;6274305;22;20004;-72
2022/07/29 01:39:21;;;;;;;3.95;2.30;;;;;;;19.97;48.98;101485.66;6274090;22;20051;-72
2022/07/29 01:42:05;;;;;;;4.63;2.05;;;;;;;20.01;48.58;101483.91;6274510;22;20007;-73
2022/07/29 01:44:48;;;;;;;5.53;2.10;;;;;;;20.00;48.70;101487.84;6274448;22;20359;-72
2022/07/29 01:47:20;;;;;;;;;;;;;;;20.16;47.48;101474.38;6275332;22;20003;-73
2022/07/29 01:49:49;;;;;;;3.75;1.95;;;;;;;19.89;49.30;101475.88;6275221;22;19907;-73
2022/07/29 01:52:53;;;;;;;4.53;1.75;;;;;;;19.98;48.54;101476.03;6273258;22;20031;-73
2022/07/29 01:55:22;;;;;;;5.13;2.38;;;;;;;19.78;49.60;101486.44;6247320;22;20046;-73
2022/07/29 01:57:49;;;;;;;4.57;2.17;;;;;;;19.76;49.38;101497.13;6274660;22;20007;-73
2022/07/29 02:00:15;;;;;;;6.22;2.08;;;;;;;19.73;49.74;101503.41;6274046;22;20016;-73
2022/07/29 02:02:44;;;;;;;3.95;2.00;;;;;;;19.72;49.83;101487.59;6272941;22;20012;-73
2022/07/29 02:05:12;;;;;;;3.85;2.00;;;;;;;19.77;49.76;101489.56;6274684;22;20446;-73
2022/07/29 02:07:39;;;;;;;3.42;1.77;;;;;;;19.70;49.95;101486.25;6274048;22;20083;-73
2022/07/29 02:10:06;;;;;;;3.10;1.85;;;;;;;19.60;50.47;101482.34;6273757;22;20457;-73
2022/07/29 02:12:33;;;;;;;5.05;1.85;;;;;;;19.70;50.42;101478.63;6274060;22;20087;-71
2022/07/29 02:15:02;;;;;;;4.32;2.25;;;;;;;19.64;50.38;101478.97;6273807;22;20012;-71
2022/07/29 02:17:35;;;;;;;6.35;2.60;;;;;;;19.69;50.28;101474.16;6275074;22;20030;-73
2022/07/29 02:20:01;;;;;;;;;;;;;;;19.91;48.78;101479.22;6273840;22;20011;-72
2022/07/29 02:22:29;;;;;;;5.10;2.35;;;;;;;19.74;50.45;101478.88;6273952;22;19950;-73
2022/07/29 02:24:55;;;;;;;3.78;2.03;;;;;;;19.68;50.69;101475.25;6274532;22;20018;-73
2022/07/29 02:27:23;;;;;;;3.47;2.15;;;;;;;19.67;50.65;101475.56;6274023;22;20008;-72
2022/07/29 02:29:50;;;;;;;3.97;2.03;;;;;;;19.62;51.16;101479.28;6276040;22;20004;-72
2022/07/29 02:32:17;;;;;;;5.72;2.40;;;;;;;19.52;51.04;101471.75;6274499;22;20004;-72
2022/07/29 02:34:44;;;;;;;4.38;2.15;;;;;;;19.54;51.12;101471.47;6275886;22;20003;-73
2022/07/29 02:37:11;;;;;;;4.90;2.35;;;;;;;19.49;51.53;101478.00;6276994;22;20007;-72
2022/07/29 02:39:40;;;;;;;6.95;2.80;;;;;;;19.43;51.40;101475.53;6276222;22;20003;-72
2022/07/29 02:42:09;;;;;;;5.65;2.40;;;;;;;19.42;52.07;101471.03;6275158;22;20015;-72
2022/07/29 02:44:35;;;;;;;8.25;2.25;;;;;;;19.48;51.49;101469.84;6276482;22;20435;-73
2022/07/29 02:47:19;;;;;;;5.78;2.40;;;;;;;19.51;51.39;101470.09;6275626;22;20078;-72
2022/07/29 02:50:03;;;;;;;5.53;2.25;;;;;;;19.35;51.91;101460.13;6275664;22;20087;-73
2022/07/29 02:52:37;;;;;;;5.13;2.20;;;;;;;19.45;51.69;101467.59;6276063;22;20420;-74
2022/07/29 02:55:14;;;;;;;6.80;2.70;;;;;;;19.35;52.18;101465.75;6276871;22;20063;-73
2022/07/29 02:57:46;;;;;;;6.55;2.45;;;;;;;19.35;51.82;101474.19;6275732;22;20450;-72
2022/07/29 03:00:12;;;;;;;4.95;3.20;;;;;;;19.33;52.12;101480.09;6275660;22;20332;-72
2022/07/29 03:02:44;;;;;;;3.83;2.50;;;;;;;19.31;52.04;101476.78;6274853;22;20050;-72
2022/07/29 03:05:15;;;;;;;4.93;2.55;;;;;;;19.37;51.81;101478.41;6275971;22;20011;-71
2022/07/29 03:07:44;;;;;;;6.57;2.33;;;;;;;19.30;51.95;101465.81;6275182;22;20428;-71
2022/07/29 03:10:09;;;;;;;5.65;2.47;;;;;;;19.40;51.93;101479.78;6274780;22;20033;-72
2022/07/29 03:12:36;;;;;;;4.25;2.22;;;;;;;19.44;51.78;101480.84;6275887;22;20004;-72
2022/07/29 03:15:02;;;;;;;5.45;2.47;;;;;;;19.41;51.86;101487.06;6276558;22;20023;-72
2022/07/29 03:17:27;;;;;;;5.05;2.38;;;;;;;19.37;52.10;101478.41;6274815;22;20015;-72
2022/07/29 03:19:53;;;;;;;5.03;2.40;;;;;;;19.35;52.21;101480.66;6275939;22;20002;-72
2022/07/29 03:22:19;;;;;;;5.38;2.25;;;;;;;19.33;52.12;101482.94;6275395;22;20030;-72
2022/07/29 03:24:44;;;;;;;3.20;2.10;;;;;;;19.26;52.39;101471.19;6274400;22;20052;-72
2022/07/29 03:27:09;;;;;;;8.50;2.67;;;;;;;19.22;52.68;101466.47;6275856;22;20003;-72
2022/07/29 03:29:34;;;;;;;5.22;2.30;;;;;;;19.17;52.91;101472.97;6276078;22;20068;-72
2022/07/29 03:32:06;;;;;;;5.50;2.42;;;;;;;19.15;52.65;101475.25;6274097;22;20007;-72
2022/07/29 03:34:31;;;;;;;8.20;2.33;;;;;;;19.18;52.98;101474.66;6275921;22;20044;-72
2022/07/29 03:36:57;;;;;;;6.03;2.42;;;;;;;19.14;52.90;101470.75;6272690;22;20004;-72
2022/07/29 03:39:27;;;;;;;4.00;2.13;;;;;;;19.09;52.99;101474.44;6275117;22;20320;-72
2022/07/29 03:41:57;;;;;;;5.90;2.42;;;;;;;19.12;52.67;101473.00;6276347;22;20039;-73
2022/07/29 03:44:25;;;;;;;4.43;2.50;;;;;;;19.24;52.22;101478.25;6275078;22;20062;-72
2022/07/29 03:46:54;;;;;;;4.95;2.20;;;;;;;19.08;52.58;101469.13;6274961;22;20429;-72
2022/07/29 03:49:21;;;;;;;5.75;2.40;;;;;;;19.14;52.31;101476.38;6274520;22;20049;-72
2022/07/29 03:51:47;;;;;;;3.72;2.20;;;;;;;19.08;52.60;101472.75;6274013;22;20007;-72
2022/07/29 03:54:12;;;;;;;3.95;2.42;;;;;;;19.11;52.42;101472.19;6276139;22;20027;-72
2022/07/29 03:56:41;;;;;;;5.70;2.42;;;;;;;19.00;52.97;101469.75;6274743;22;20074;-72
2022/07/29 03:59:07;;;;;;;5.50;2.38;;;;;;;19.07;52.55;101471.09;6275245;22;20004;-72
2022/07/29 04:01:34;;;;;;;4.18;2.00;;;;;;;18.96;53.03;101466.69;6275702;22;20050;-72
2022/07/29 04:04:01;;;;;;;6.50;2.45;;;;;;;18.94;53.04;101468.94;6275298;22;20050;-72
2022/07/29 04:06:26;;;;;;;9.32;2.53;;;;;;;18.99;53.16;101468.09;6273878;22;20008;-72
2022/07/29 04:08:52;;;;;;;5.40;2.63;;;;;;;18.95;53.13;101472.63;6275621;22;20438;-72
2022/07/29 04:11:17;;;;;;;4.50;2.40;;;;;;;18.97;53.06;101459.91;6275996;22;20089;-73
2022/07/29 04:13:43;;;;;;;4.38;2.30;;;;;;;18.91;53.23;101466.75;6274872;22;20467;-73
2022/07/29 04:16:08;;;;;;;2.50;1.92;;;;;;;18.95;53.28;101461.38;6274664;22;20018;-73
2022/07/29 04:18:33;;;;;;;9.32;2.85;;;;;;;18.89;53.50;101455.75;6275600;22;20482;-73
2022/07/29 04:21:00;;;;;;;5.55;2.40;;;;;;;18.89;53.37;101458.56;6274254;22;20367;-73
2022/07/29 04:23:26;;;;;;;5.20;2.20;;;;;;;18.95;53.63;101464.19;6274724;22;20010;-73
2022/07/29 04:25:51;;;;;;;5.22;2.47;;;;;;;18.95;53.26;101455.75;6274936;22;20098;-72
2022/07/29 04:28:17;;;;;;;6.07;2.25;;;;;;;18.91;53.36;101457.47;6274184;22;20021;-72
2022/07/29 04:30:42;;;;;;;4.13;2.28;;;;;;;18.95;53.50;101455.75;6273974;22;20388;-72
2022/07/29 04:33:07;;;;;;;3.05;2.03;;;;;;;18.94;53.66;101457.69;6275349;22;20039;-72
2022/07/29 04:35:37;;;;;;;5.93;2.15;;;;;;;18.94;53.35;101460.50;6273580;22;20427;-73
2022/07/29 04:38:03;;;;;;;6.50;2.50;;;;;;;18.88;53.86;101459.72;6274778;22;20010;-73
2022/07/29 04:40:28;;;;;;;6.88;2.50;;;;;;;18.95;53.48;101469.81;6274178;22;20272;-72
2022/07/29 04:42:54;;;;;;;6.07;2.50;;;;;;;18.89;53.90;101467.00;6274220;22;20007;-72
2022/07/29 04:45:19;;;;;;;5.38;2.83;;;;;;;18.80;54.01;101470.75;6275534;22;20008;-73
2022/07/29 04:47:44;;;;;;;5.30;2.50;;;;;;;18.82;54.31;101485.34;6273108;22;20416;-72
2022/07/29 04:50:10;;;;;;;5.88;2.38;;;;;;;18.78;54.32;101496.34;6275148;22;20000;-72
2022/07/29 04:52:36;;;;;;;4.97;2.72;;;;;;;18.75;54.84;101508.22;6274270;22;20004;-72
2022/07/29 04:55:02;;;;;;;5.45;2.63;;;;;;;18.70;54.96;101505.41;6273232;22;20006;-72
2022/07/29 04:57:28;;;;;;;5.53;2.70;;;;;;;18.71;55.12;101490.25;6274144;22;20027;-72
2022/07/29 04:59:53;;;;;;;5.75;2.78;;;;;;;18.74;55.04;101500.88;6272743;22;20408;-72
2022/07/29 05:02:18;;;;;;;4.30;2.78;;;;;;;18.68;55.06;101506.81;6272065;22;20004;-72
2022/07/29 05:04:44;;;;;;;4.88;3.00;;;;;;;18.68;55.25;101516.09;6273581;22;20091;-72
2022/07/29 05:07:09;;;;;;;4.40;2.85;;;;;;;18.65;55.50;101519.47;6273402;22;20091;-72
2022/07/29 05:09:34;;;;;;;4.65;3.13;;;;;;;18.59;55.71;101527.13;6273504;22;19995;-72
2022/07/29 05:11:59;;;;;;;4.63;3.08;;;;;;;18.65;55.67;101536.34;6274164;22;20003;-72
2022/07/29 05:14:25;;;;;;;6.03;2.95;;;;;;;18.66;55.88;101518.34;6275078;22;20099;-72
2022/07/29 05:16:50;;;;;;;6.00;3.05;;;;;;;18.70;55.61;101525.09;6272705;22;20014;-73
2022/07/29 05:19:19;;;;;;;4.60;3.13;;;;;;;18.73;55.33;101532.97;6273697;22;20297;-72
2022/07/29 05:21:44;;;;;;;6.78;2.80;;;;;;;18.71;55.62;101528.78;6274280;22;20232;-72
2022/07/29 05:24:10;;;;;;;4.15;3.10;;;;;;;18.73;55.66;101524.53;6273437;22;20011;-72
2022/07/29 05:26:35;;;;;;;5.78;3.35;;;;;;;18.72;55.57;101519.19;6274977;22;20015;-72
2022/07/29 05:29:00;;;;;;;4.88;3.15;;;;;;;18.73;55.39;101527.34;6274561;22;20454;-72
2022/07/29 05:31:25;;;;;;;4.82;3.20;;;;;;;18.59;55.91;101532.75;6273697;22;20004;-73
2022/07/29 05:33:51;;;;;;;15.45;3.40;;;;;;;18.60;56.23;101523.19;6273781;22;20027;-72
2022/07/29 05:36:16;;;;;;;11.95;3.55;;;;;;;18.59;56.20;101526.28;6272619;22;20003;-72
2022/07/29 05:38:41;;;;;;;5.50;3.40;;;;;;;18.65;55.75;101520.31;6273189;22;20004;-73
2022/07/29 05:41:06;;;;;;;9.82;3.90;;;;;;;18.67;55.96;101517.25;6275065;22;20000;-72
2022/07/29 05:43:32;;;;;;;5.90;3.88;;;;;;;18.56;56.37;101524.88;6274571;22;20067;-73
2022/07/29 05:45:58;;;;;;;6.07;3.25;;;;;;;18.60;56.11;101520.38;6273801;22;20038;-72
2022/07/29 05:48:23;;;;;;;10.40;3.78;;;;;;;18.63;56.07;101518.94;6274202;22;20482;-72
2022/07/29 05:50:48;;;;;;;6.32;3.72;;;;;;;18.63;56.05;101528.22;6274646;22;20007;-72
2022/07/29 05:53:14;;;;;;;5.18;3.60;;;;;;;18.67;56.08;101527.63;6274095;22;20055;-72
2022/07/29 05:55:39;;;;;;;7.53;4.00;;;;;;;18.58;56.29;101525.41;6274168;22;20514;-72
2022/07/29 05:58:04;;;;;;;5.47;4.00;;;;;;;18.67;56.11;101520.03;6273534;22;20011;-73
2022/07/29 06:00:30;;;;;;;6.95;5.22;;;;;;;18.67;56.12;101520.03;6274159;22;20423;-72
2022/07/29 06:02:55;;;;;;;6.32;4.45;;;;;;;18.66;56.06;101521.16;6274535;22;20004;-72
2022/07/29 06:05:20;;;;;;;8.43;4.50;;;;;;;18.67;55.94;101528.47;6273942;22;20008;-73
2022/07/29 06:07:46;;;;;;;8.40;4.82;;;;;;;18.66;56.29;101526.78;6275704;22;20007;-73
2022/07/29 06:10:11;;;;;;;7.57;4.65;;;;;;;18.61;56.37;101529.63;6271071;22;20082;-73
2022/07/29 06:12:36;;;;;;;7.05;4.65;;;;;;;18.73;56.05;101524.53;6274600;22;20014;-73
2022/07/29 06:15:02;;;;;;;9.18;5.00;;;;;;;18.72;55.91;101524.81;6275203;22;20082;-73
2022/07/29 06:17:27;;;;;;;7.88;4.65;;;;;;;18.74;56.11;101526.19;6276293;22;20407;-73
2022/07/29 06:19:53;;;;;;;8.20;5.28;;;;;;;18.76;55.69;101525.91;6272513;22;19999;-73
2022/07/29 06:22:18;;;;;;;10.98;4.78;;;;;;;18.80;55.81;101533.47;6272963;22;20019;-72
2022/07/29 06:24:43;;;;;;;6.00;3.33;;;;;;;18.95;55.96;101534.50;6275841;22;20023;-72
2022/07/29 06:27:12;;;;;;;6.20;4.15;;;;;;;18.97;55.62;101526.59;6274523;22;20030;-72
2022/07/29 06:29:37;;;;;;;5.00;3.22;;;;;;;19.07;56.09;101526.53;6274578;22;20010;-71
2022/07/29 06:32:03;;;;;;;8.13;4.40;;;;;;;19.03;55.54;101522.63;6273764;22;20003;-68
2022/07/29 06:42:08;;;;;;;5.00;4.32;;;;;;;19.12;54.87;101521.69;6147413;23;20076;-74
2022/07/29 06:45:04;;;;;;;4.35;2.78;;;;;;;19.32;55.00;101533.91;6121238;23;20013;-76
2022/07/29 07:01:22;;;;;;;;;;;;;;;19.37;53.98;101547.91;6005733;23;20114;-74
2022/07/29 07:12:16;;;;;;;7.88;4.15;;;;;;;19.29;54.72;101545.75;6018874;23;20108;-72
2022/07/29 07:15:03;;;;;;;6.57;4.07;;;;;;;19.31;54.92;101549.13;6003241;23;20003;-65
2022/07/29 07:21:10;;;;;;;;;;;;;;;;;;;;;
2022/07/29 07:24:44;;;;;;;5.35;4.03;;;;;;;19.37;54.98;101551.59;5998670;23;20010;-68
2022/07/29 07:27:45;;;;;;;7.10;2.50;;;;;;;19.60;54.84;101564.03;6169529;23;20035;-71
2022/07/29 07:30:44;;;;;;;5.78;3.80;;;;;;;19.78;54.59;101564.47;6238207;23;20087;-71
2022/07/29 07:33:55;;;;;;;;;;;;;;;;;;;;;
2022/07/29 07:44:27;;;;;;;4.78;2.50;;;;;;;20.31;53.25;101548.31;6069357;23;20013;-72
2022/07/29 07:51:00;;;;;;;;;;;;;;;;;;;;;
2022/07/29 08:07:38;;;;;;;5.68;3.58;;;;;;;20.91;52.42;101558.25;6089438;23;20034;-74
2022/07/29 08:13:38;;;;;;;4.45;2.40;;;;;;;21.19;52.20;101568.50;6237348;23;20008;-74
2022/07/29 08:34:53;;;;;;;8.10;3.22;;;;;;;21.54;51.61;101569.91;6085092;23;20021;-75
2022/07/29 08:38:32;;;;;;;6.80;3.78;;;;;;;21.55;51.48;101570.75;6147497;23;20370;-73
2022/07/29 08:45:07;;;;;;;5.40;3.78;;;;;;;21.73;50.91;101571.81;6119151;23;20020;-68
2022/07/29 08:55:27;;;;;;;3.72;2.58;;;;;;;21.86;50.47;101564.53;6000736;23;20012;-77
2022/07/29 09:09:16;;;;;;;;;;;;;;;;;;;;;
2022/07/29 09:19:42;;;;;;;4.38;3.55;;;;;;;22.35;49.44;101563.00;6053526;23;20056;-75
2022/07/29 09:23:23;;;;;;;8.00;3.47;;;;;;;22.40;49.50;101558.06;5979325;23;20111;-72
2022/07/29 09:26:28;;;;;;;4.88;3.17;;;;;;;22.52;49.54;101571.69;6082198;23;20006;-72
2022/07/29 09:29:50;;;;;;;8.63;3.20;;;;;;;22.58;49.73;101584.53;6017526;23;20070;-75
2022/07/29 09:32:53;;;;;;;6.30;2.90;;;;;;;22.54;48.70;101575.84;6000201;23;20007;-73
2022/07/29 09:36:00;;;;;;;;;;;;;;;;;;;;;
2022/07/29 09:53:54;;;;;;;4.18;2.83;;;;;;;22.93;47.98;101571.59;5997165;23;20268;-73
2022/07/29 10:00:50;;;;;;;5.47;2.67;;;;;;;23.10;46.78;101579.41;5998031;23;20072;-76
2022/07/29 10:03:51;;;;;;;8.85;3.40;;;;;;;23.08;46.24;101572.41;6010359;23;20495;-72
2022/07/29 10:10:59;;;;;;;11.73;2.83;;;;;;;23.19;46.45;101563.34;6228675;22;20012;-73
2022/07/29 10:17:48;;;;;;;7.15;2.85;;;;;;;23.38;46.29;101574.44;6238147;22;20235;-73
2022/07/29 10:24:13;;;;;;;5.70;2.90;;;;;;;23.44;44.72;101561.84;6179730;23;20426;-74
2022/07/29 10:27:31;;;;;;;;;;;;;;;;;;;;;
2022/07/29 10:30:45;;;;;;;;;;;;;;;;;;;;;
2022/07/29 10:47:57;;;;;;;5.68;2.70;;;;;;;23.64;44.86;101551.94;6182049;22;20144;-75
2022/07/29 10:51:08;;;;;;;4.65;2.17;;;;;;;23.77;45.06;101559.53;6273068;22;20012;-74
2022/07/29 10:54:47;;;;;;;;;;;;;;;;;;;;;
2022/07/29 10:57:51;;;;;;;5.38;2.83;;;;;;;23.75;43.84;101552.56;6175818;23;20080;-73
2022/07/29 11:00:39;;;;;;;6.25;2.60;;;;;;;23.80;43.15;101560.06;6175545;23;20005;-74
2022/07/29 11:04:04;;;;;;;4.75;2.80;;;;;;;23.83;43.31;101548.91;6273501;22;20041;-75
2022/07/29 11:18:44;;;;;;;5.20;2.60;;;;;;;24.11;43.12;101552.38;6053728;23;20011;-72
2022/07/29 11:28:52;;;;;;;3.55;2.53;;;;;;;24.24;43.69;101548.56;6149282;23;20056;-72
2022/07/29 11:32:23;;;;;;;7.13;2.50;;;;;;;24.37;43.77;101551.63;6148931;23;20442;-71
2022/07/29 11:45:56;;;;;;;6.93;2.22;;;;;;;24.59;41.98;101534.50;6237561;22;20041;-76
2022/07/29 12:34:14;;;;;;;2.83;1.70;;;;;;;24.96;40.05;101552.06;6232749;22;20035;-69
2022/07/29 12:37:33;;;;;;;6.13;2.10;;;;;;;25.10;40.41;101549.09;6227666;23;20012;-69
2022/07/29 12:40:36;;;;;;;4.85;1.80;;;;;;;25.24;39.77;101548.91;6241639;23;20359;-68
2022/07/29 12:47:03;;;;;;;3.42;2.00;;;;;;;25.20;39.70;101545.91;6117217;23;20014;-69
2022/07/29 12:54:01;;;;;;;2.78;2.13;;;;;;;25.33;40.03;101549.72;6149153;23;20014;-68
2022/07/29 12:57:07;;;;;;;6.15;2.45;;;;;;;25.36;39.69;101547.06;6115050;23;20013;-72
2022/07/29 13:03:46;;;;;;;6.63;2.20;;;;;;;25.34;40.61;101534.34;6092935;23;20075;-71
2022/07/29 13:17:23;;;;;;;3.78;2.10;;;;;;;25.16;40.00;101548.59;6130790;23;20068;-70
2022/07/29 13:24:06;;;;;;;3.25;2.03;;;;;;;25.25;40.47;101533.53;6199009;23;20019;-70
2022/07/29 13:31:01;;;;;;;5.85;2.55;;;;;;;25.20;39.94;101541.06;6199435;23;20008;-69
2022/07/29 13:37:32;;;;;;;4.38;2.08;;;;;;;25.16;40.26;101537.22;6221173;23;20424;-70
2022/07/29 13:58:48;;;;;;;2.45;1.73;;;;;;;25.08;41.28;101540.88;6108212;23;20088;-70
2022/07/29 14:02:08;;;;;;;5.55;2.25;;;;;;;25.22;40.91;101546.41;5991627;23;20063;-69
2022/07/29 14:05:32;;;;;;;7.40;2.08;;;;;;;25.23;40.18;101539.56;6001219;23;20309;-71
2022/07/29 14:11:50;;;;;;;4.57;2.03;;;;;;;25.27;39.89;101534.88;6003579;23;20026;-70
2022/07/29 14:18:15;;;;;;;3.95;1.88;;;;;;;25.39;38.84;101534.19;6235202;23;20012;-74
2022/07/29 14:28:44;;;;;;;;;;;;;;;;;;;;;
2022/07/29 14:42:37;;;;;;;4.72;1.80;;;;;;;25.68;37.99;101534.25;6029967;23;20171;-73
2022/07/29 14:46:16;;;;;;;;;;;;;;;;;;;;;
2022/07/29 15:14:24;;;;;;;;;;;;;;;;;;;;;
2022/07/29 15:17:48;;;;;;;;;;;;;;;;;;;;;
2022/07/29 15:31:23;;;;;;;4.35;1.65;;;;;;;25.76;37.10;101538.25;5873408;24;20013;-73
2022/07/29 15:38:03;;;;;;;;;;;;;;;;;;;;;
2022/07/29 16:26:41;;;;;;;3.47;1.67;;;;;;;25.45;35.90;101532.81;5813658;24;20026;-71
2022/07/29 17:33:10;;;;;;;4.25;2.05;;;;;;;24.93;38.80;101535.69;5786137;24;20016;-73
2022/07/29 18:11:15;;;;;;;3.92;2.35;;;;;;;24.66;40.29;101562.41;5727534;25;20016;-73
2022/07/29 18:35:31;;;;;;;7.00;2.20;;;;;;;24.40;41.15;101576.50;6062775;23;20049;-68
2022/07/29 18:39:17;;;;;;;3.10;2.17;;;;;;;24.39;41.10;101572.00;5976648;24;20028;-69
2022/07/29 18:45:04;;;;;;;4.65;2.00;;;;;;;24.20;40.83;101572.25;6104865;22;20030;-73
2022/07/29 18:56:00;;;;;;;3.80;1.92;;;;;;;24.21;41.60;101588.97;6204426;22;20012;-71
2022/07/29 18:59:01;;;;;;;6.00;1.90;;;;;;;24.16;41.45;101583.41;6260778;22;20094;-71
2022/07/29 19:05:35;;;;;;;6.45;2.28;;;;;;;24.10;41.28;101587.56;6136316;22;20033;-73
2022/07/29 19:12:25;;;;;;;4.25;2.00;;;;;;;24.11;41.12;101594.09;6061548;23;20062;-71
2022/07/29 19:15:40;;;;;;;6.32;1.92;;;;;;;24.05;41.40;101604.75;6078745;23;20095;-72
2022/07/29 19:25:58;;;;;;;4.40;2.10;;;;;;;23.92;41.41;101614.16;5983712;23;20012;-71
2022/07/29 19:29:22;;;;;;;4.60;1.70;;;;;;;23.82;41.40;101618.13;5991711;23;20480;-72
2022/07/29 19:40:00;;;;;;;8.18;2.13;;;;;;;23.84;41.54;101637.63;5965294;23;20505;-71
2022/07/29 19:53:39;;;;;;;5.38;2.22;;;;;;;23.67;41.96;101642.03;6178549;23;20028;-71
2022/07/29 20:04:16;;;;;;;4.38;2.15;;;;;;;23.59;41.93;101668.28;6147834;23;20357;-72
2022/07/29 20:10:53;;;;;;;;;;;;;;;;;;;;;
2022/07/29 20:14:04;;;;;;;;;;;;;;;;;;;;;
2022/07/29 20:20:24;;;;;;;6.13;2.33;;;;;;;23.38;42.80;101669.94;6148359;23;20059;-70
2022/07/29 20:26:28;;;;;;;;;;;;;;;23.51;42.33;101680.41;6074212;23;20563;-71
2022/07/29 20:29:32;;;;;;;8.05;2.17;;;;;;;23.36;42.76;101683.59;6198305;22;19917;-71
2022/07/29 20:40:04;;;;;;;;;;;;;;;;;;;;;
2022/07/29 20:47:15;;;;;;;4.22;2.00;;;;;;;23.19;43.04;101690.78;6055633;23;20097;-69
2022/07/29 20:50:28;;;;;;;;;;;;;;;;;;;;;
2022/07/29 20:54:15;;;;;;;6.05;2.20;;;;;;;23.17;43.29;101687.41;6168187;22;20067;-71
2022/07/29 21:00:25;;;;;;;;;;;;;;;;;;;;;
2022/07/29 21:03:42;;;;;;;;;;;;;;;;;;;;;
2022/07/29 21:06:37;;;;;;;4.88;2.47;;;;;;;22.96;44.00;101686.22;6213974;22;20088;-73
2022/07/29 21:09:46;;;;;;;4.70;2.65;;;;;;;22.98;44.06;101695.22;6271917;22;20074;-71
2022/07/29 21:12:30;;;;;;;6.78;2.50;;;;;;;23.00;43.85;101698.56;6272215;22;20008;-71
2022/07/29 21:15:47;;;;;;;;;;;;;;;;;;;;;
2022/07/29 21:19:15;;;;;;;7.97;2.40;;;;;;;22.90;44.12;101687.44;6242618;22;20482;-72
2022/07/29 21:22:07;;;;;;;6.25;2.58;;;;;;;22.87;44.59;101705.03;6148042;23;20005;-71
2022/07/29 21:25:36;;;;;;;6.38;2.45;;;;;;;22.85;44.24;101688.38;6209141;22;20020;-74
2022/07/29 21:31:51;;;;;;;5.00;2.30;;;;;;;22.82;44.79;101691.84;6239382;22;20043;-72
2022/07/29 21:55:18;;;;;;;6.27;2.50;;;;;;;22.72;44.86;101698.56;6274893;22;20019;-69
2022/07/29 21:58:30;;;;;;;5.00;2.58;;;;;;;22.69;45.09;101692.69;6259625;22;20015;-69
2022/07/29 22:09:05;;;;;;;8.35;2.72;;;;;;;22.57;45.54;101687.56;6180973;23;20013;-70
2022/07/29 22:29:16;;;;;;;10.20;3.05;;;;;;;22.44;46.72;101675.09;6107082;23;20045;-72
2022/07/29 22:41:53;;;;;;;7.20;3.20;;;;;;;22.35;48.31;101693.09;6122247;23;20090;-70
2022/07/29 22:47:55;;;;;;;6.82;2.97;;;;;;;22.26;48.78;101701.47;6047019;23;20068;-74
2022/07/29 23:00:37;;;;;;;5.93;2.72;;;;;;;22.11;50.48;101693.22;6243539;23;20428;-71
2022/07/29 23:07:28;;;;;;;9.32;3.50;;;;;;;22.16;50.34;101705.31;6031959;23;20111;-68
2022/07/29 23:10:19;;;;;;;;;;;;;;;;;;;;;
2022/07/29 23:14:10;;;;;;;11.47;3.77;;;;;;;22.08;51.05;101720.13;6030786;23;20082;-68
2022/07/29 23:16:27;;;;;;;10.35;3.42;;;;;;;22.02;51.92;101721.38;6062288;23;20315;-66
2022/07/29 23:18:53;;;;;;;7.22;3.53;;;;;;;21.84;52.81;101717.44;6241917;23;20066;-66
2022/07/29 23:21:19;;;;;;;8.70;3.53;;;;;;;21.77;53.34;101719.81;6245158;23;20499;-66
2022/07/29 23:23:45;;;;;;;10.88;3.72;;;;;;;21.67;53.58;101726.47;6244788;23;20412;-66
2022/07/29 23:26:15;;;;;;;9.90;3.65;;;;;;;21.59;53.90;101726.34;6243707;23;20035;-66
2022/07/29 23:28:41;;;;;;;8.13;3.60;;;;;;;21.54;54.09;101730.09;6245073;23;20031;-66
2022/07/29 23:31:06;;;;;;;12.02;4.05;;;;;;;21.35;54.72;101724.44;6245631;23;20027;-66
2022/07/29 23:33:31;;;;;;;7.43;3.00;;;;;;;21.37;54.79;101730.59;6244441;23;20008;-65
2022/07/29 23:35:56;;;;;;;8.35;3.83;;;;;;;21.29;55.10;101731.25;6243208;23;20106;-65
2022/07/29 23:38:22;;;;;;;7.70;3.42;;;;;;;21.23;55.39;101727.69;6244104;23;20339;-65
2022/07/29 23:40:49;;;;;;;7.90;4.10;;;;;;;21.20;55.50;101725.47;6243430;23;20008;-65
2022/07/29 23:43:14;;;;;;;14.57;4.22;;;;;;;21.19;55.91;101723.78;6244194;23;20062;-66
2022/07/29 23:45:40;;;;;;;8.32;4.05;;;;;;;21.21;55.82;101720.63;6243824;23;20008;-65
2022/07/29 23:48:05;;;;;;;8.88;3.83;;;;;;;21.19;55.95;101718.13;6242331;23;20004;-65
2022/07/29 23:50:30;;;;;;;8.18;3.80;;;;;;;21.08;56.42;101717.44;6272969;22;20007;-66
2022/07/29 23:52:56;;;;;;;12.68;4.28;;;;;;;21.10;56.33;101714.28;6274182;22;20003;-65
2022/07/29 23:55:22;;;;;;;7.72;3.70;;;;;;;21.10;56.34;101714.28;6273592;22;20015;-65
2022/07/29 23:57:48;;;;;;;9.38;3.83;;;;;;;21.06;56.45;101710.41;6274762;22;20679;-65
